createdAt,value
2019-03-20T00:01:51.141Z,26.80
2019-03-20T00:04:18.236Z,26.80
2019-03-20T00:06:45.112Z,26.80
2019-03-20T00:09:11.785Z,26.90
2019-03-20T00:11:38.606Z,26.90
2019-03-20T00:14:05.299Z,27.00
2019-03-20T00:16:31.843Z,27.00
2019-03-20T00:18:58.633Z,27.00
2019-03-20T00:21:25.326Z,27.00
2019-03-20T00:23:52.017Z,27.10
2019-03-20T00:26:18.630Z,27.20
2019-03-20T00:28:45.232Z,27.10
2019-03-20T00:31:11.954Z,27.10
2019-03-20T00:33:38.628Z,27.10
2019-03-20T00:36:05.823Z,26.90
2019-03-20T00:38:32.487Z,26.90
2019-03-20T00:40:59.324Z,26.90
2019-03-20T00:43:25.963Z,27.20
2019-03-20T00:45:53.665Z,26.90
2019-03-20T00:48:20.745Z,26.90
2019-03-20T00:50:49.658Z,26.90
2019-03-20T00:53:16.230Z,26.90
2019-03-20T00:55:44.643Z,26.90
2019-03-20T00:58:11.888Z,26.90
2019-03-20T01:00:38.577Z,26.90
2019-03-20T01:03:05.480Z,26.90
2019-03-20T01:05:33.130Z,27.00
2019-03-20T01:08:01.526Z,27.00
2019-03-20T01:10:28.227Z,26.90
2019-03-20T01:12:55.975Z,27.00
2019-03-20T01:15:23.449Z,27.10
2019-03-20T01:17:51.065Z,27.10
2019-03-20T01:20:20.315Z,27.20
2019-03-20T01:22:48.002Z,27.20
2019-03-20T01:25:15.660Z,27.10
2019-03-20T01:27:42.893Z,27.00
2019-03-20T01:30:34.724Z,27.10
2019-03-20T01:33:09.136Z,27.10
2019-03-20T01:35:35.791Z,27.00
2019-03-20T01:38:03.924Z,26.90
2019-03-20T01:40:30.384Z,26.90
2019-03-20T01:42:58.151Z,27.00
2019-03-20T01:45:24.736Z,27.10
2019-03-20T01:47:51.178Z,27.60
2019-03-20T01:50:18.036Z,27.20
2019-03-20T01:52:44.582Z,27.20
2019-03-20T01:55:11.155Z,27.20
2019-03-20T01:57:37.927Z,27.20
2019-03-20T02:00:06.588Z,27.30
2019-03-20T02:02:33.320Z,27.40
2019-03-20T02:04:59.887Z,27.40
2019-03-20T02:07:26.433Z,27.40
2019-03-20T02:09:53.577Z,27.40
2019-03-20T02:12:20.034Z,27.30
2019-03-20T02:14:46.564Z,27.20
2019-03-20T02:17:13.031Z,27.20
2019-03-20T02:19:39.473Z,27.10
2019-03-20T02:22:07.024Z,26.90
2019-03-20T02:24:34.114Z,27.00
2019-03-20T02:27:00.593Z,27.10
2019-03-20T02:29:27.793Z,27.40
2019-03-20T02:31:54.723Z,27.50
2019-03-20T02:34:21.235Z,27.40
2019-03-20T02:36:48.224Z,27.30
2019-03-20T02:39:16.176Z,27.40
2019-03-20T02:41:42.629Z,27.50
2019-03-20T02:44:09.261Z,27.60
2019-03-20T02:46:36.187Z,27.50
2019-03-20T02:49:02.929Z,27.40
2019-03-20T02:51:29.372Z,27.50
2019-03-20T02:53:56.701Z,27.80
2019-03-20T02:56:23.957Z,27.70
2019-03-20T02:58:50.388Z,27.50
2019-03-20T03:01:16.983Z,28.10
2019-03-20T03:03:43.410Z,27.50
2019-03-20T03:06:10.728Z,27.40
2019-03-20T03:08:38.063Z,27.30
2019-03-20T03:11:04.516Z,27.30
2019-03-20T03:13:31.018Z,27.20
2019-03-20T03:15:57.603Z,27.30
2019-03-20T03:18:24.748Z,27.20
2019-03-20T03:20:51.754Z,27.20
2019-03-20T03:23:18.364Z,27.30
2019-03-20T03:25:44.898Z,27.30
2019-03-20T03:28:11.476Z,27.40
2019-03-20T03:30:37.907Z,27.70
2019-03-20T03:33:04.374Z,27.80
2019-03-20T03:35:31.110Z,27.70
2019-03-20T03:37:57.556Z,27.60
2019-03-20T03:40:25.379Z,27.50
2019-03-20T03:42:52.032Z,27.30
2019-03-20T03:45:18.523Z,27.20
2019-03-20T03:47:44.970Z,27.00
2019-03-20T03:50:11.507Z,27.00
2019-03-20T03:52:37.971Z,27.00
2019-03-20T03:55:07.624Z,27.10
2019-03-20T03:57:34.384Z,27.10
2019-03-20T04:00:01.081Z,27.10
2019-03-20T04:02:27.664Z,27.10
2019-03-20T04:04:54.208Z,27.10
2019-03-20T04:07:23.507Z,27.30
2019-03-20T04:09:49.012Z,27.40
2019-03-20T04:12:15.569Z,27.50
2019-03-20T04:14:42.125Z,27.50
2019-03-20T04:17:22.063Z,27.50
2019-03-20T04:19:48.511Z,27.40
2019-03-20T04:22:16.979Z,27.50
2019-03-20T04:24:43.547Z,27.40
2019-03-20T04:27:10.000Z,27.30
2019-03-20T04:29:37.344Z,27.90
2019-03-20T04:32:04.013Z,27.30
2019-03-20T04:34:30.929Z,27.30
2019-03-20T04:36:57.392Z,27.20
2019-03-20T04:39:24.367Z,27.20
2019-03-20T04:41:50.919Z,27.10
2019-03-20T04:44:17.796Z,27.10
2019-03-20T04:46:44.281Z,27.30
2019-03-20T04:49:10.724Z,27.20
2019-03-20T04:51:37.215Z,27.30
2019-03-20T04:54:03.796Z,27.30
2019-03-20T04:56:30.227Z,27.80
2019-03-20T04:58:56.710Z,27.30
2019-03-20T05:01:23.194Z,27.20
2019-03-20T05:03:49.775Z,27.10
2019-03-20T05:06:16.204Z,27.00
2019-03-20T05:08:43.468Z,27.10
2019-03-20T05:11:09.923Z,27.10
2019-03-20T05:13:36.391Z,27.20
2019-03-20T05:16:03.174Z,27.20
2019-03-20T05:18:29.773Z,27.20
2019-03-20T05:20:56.200Z,27.00
2019-03-20T05:23:23.288Z,26.70
2019-03-20T05:25:50.122Z,26.70
2019-03-20T05:28:16.595Z,26.60
2019-03-20T05:30:43.334Z,26.40
2019-03-20T05:33:10.000Z,26.10
2019-03-20T05:35:36.467Z,26.10
2019-03-20T05:38:03.418Z,25.50
2019-03-20T05:40:30.015Z,25.00
2019-03-20T05:42:57.073Z,24.50
2019-03-20T05:45:23.988Z,23.90
2019-03-20T05:47:50.545Z,23.40
2019-03-20T05:50:18.131Z,22.80
2019-03-20T05:52:44.726Z,22.40
2019-03-20T05:55:11.270Z,22.20
2019-03-20T05:57:37.832Z,21.90
2019-03-20T06:00:14.278Z,21.90
2019-03-20T06:02:40.862Z,21.80
2019-03-20T06:05:07.872Z,21.80
2019-03-20T06:07:34.652Z,21.60
2019-03-20T06:10:02.171Z,21.90
2019-03-20T06:12:30.590Z,21.20
2019-03-20T06:14:57.596Z,20.90
2019-03-20T06:17:24.523Z,20.70
2019-03-20T06:19:51.212Z,20.50
2019-03-20T06:22:17.654Z,20.20
2019-03-20T06:24:44.225Z,19.90
2019-03-20T06:27:10.767Z,19.70
2019-03-20T06:29:37.333Z,19.60
2019-03-20T06:32:03.773Z,19.60
2019-03-20T06:34:30.262Z,19.50
2019-03-20T06:36:57.156Z,19.50
2019-03-20T06:39:24.432Z,19.40
2019-03-20T06:41:50.963Z,19.40
2019-03-20T06:44:17.809Z,19.30
2019-03-20T06:46:44.376Z,19.20
2019-03-20T06:49:10.986Z,18.90
2019-03-20T06:51:37.434Z,19.00
2019-03-20T06:54:04.449Z,18.90
2019-03-20T06:56:30.959Z,19.10
2019-03-20T06:59:18.180Z,19.00
2019-03-20T07:01:45.304Z,19.00
2019-03-20T07:04:15.828Z,18.90
2019-03-20T07:06:51.968Z,18.90
2019-03-20T07:09:45.292Z,18.70
2019-03-20T07:12:11.829Z,18.70
2019-03-20T07:14:38.407Z,18.90
2019-03-20T07:17:04.834Z,18.80
2019-03-20T07:19:31.303Z,18.90
2019-03-20T07:21:57.777Z,18.90
2019-03-20T07:24:24.342Z,18.70
2019-03-20T07:26:51.009Z,18.60
2019-03-20T07:29:17.600Z,18.80
2019-03-20T07:31:45.343Z,18.70
2019-03-20T07:34:12.066Z,18.50
2019-03-20T07:36:38.630Z,18.70
2019-03-20T07:39:08.309Z,18.40
2019-03-20T07:41:34.858Z,19.30
2019-03-20T07:44:01.469Z,18.70
2019-03-20T07:46:28.043Z,18.10
2019-03-20T07:48:54.667Z,18.70
2019-03-20T07:51:21.216Z,18.70
2019-03-20T07:53:47.933Z,18.90
2019-03-20T07:56:14.483Z,19.00
2019-03-20T07:58:41.488Z,18.90
2019-03-20T08:01:08.635Z,18.90
2019-03-20T08:03:35.008Z,19.50
2019-03-20T08:06:03.205Z,18.60
2019-03-20T08:08:29.854Z,18.40
2019-03-20T08:10:56.337Z,18.60
2019-03-20T08:13:22.790Z,18.20
2019-03-20T08:15:49.368Z,18.70
2019-03-20T08:18:15.930Z,18.20
2019-03-20T08:20:42.499Z,18.10
2019-03-20T08:23:08.990Z,18.30
2019-03-20T08:25:35.444Z,17.80
2019-03-20T08:28:01.979Z,17.70
2019-03-20T08:30:29.651Z,17.90
2019-03-20T08:32:56.199Z,18.30
2019-03-20T08:35:23.092Z,18.30
2019-03-20T08:37:49.765Z,18.90
2019-03-20T08:40:17.376Z,18.90
2019-03-20T08:42:43.848Z,19.10
2019-03-20T08:45:18.211Z,19.60
2019-03-20T08:47:44.957Z,19.50
2019-03-20T08:50:14.462Z,19.90
2019-03-20T08:52:41.032Z,19.70
2019-03-20T08:55:11.219Z,20.00
2019-03-20T08:57:38.276Z,19.90
2019-03-20T09:00:14.050Z,19.90
2019-03-20T09:02:40.841Z,20.30
2019-03-20T09:05:09.131Z,19.80
2019-03-20T09:07:46.692Z,20.10
2019-03-20T09:10:13.954Z,20.20
2019-03-20T09:12:40.711Z,20.10
2019-03-20T09:15:09.834Z,20.40
2019-03-20T09:17:36.409Z,20.90
2019-03-20T09:20:06.190Z,20.40
2019-03-20T09:22:34.564Z,20.40
2019-03-20T09:25:01.100Z,20.60
2019-03-20T09:27:27.631Z,20.50
2019-03-20T09:29:56.346Z,20.40
2019-03-20T09:32:23.969Z,20.50
2019-03-20T09:34:51.067Z,20.20
2019-03-20T09:37:19.185Z,20.40
2019-03-20T09:39:46.285Z,20.50
2019-03-20T09:42:13.956Z,20.60
2019-03-20T09:44:40.784Z,21.20
2019-03-20T09:47:07.643Z,20.80
2019-03-20T09:49:34.191Z,20.30
2019-03-20T09:52:01.011Z,20.80
2019-03-20T09:54:27.470Z,20.60
2019-03-20T09:56:53.983Z,20.40
2019-03-20T09:59:20.597Z,20.70
2019-03-20T10:01:48.742Z,20.60
2019-03-20T10:04:15.348Z,20.30
2019-03-20T10:06:41.935Z,20.40
2019-03-20T10:09:08.467Z,20.20
2019-03-20T10:11:35.245Z,19.80
2019-03-20T10:14:01.816Z,19.50
2019-03-20T10:16:28.315Z,19.40
2019-03-20T10:18:54.820Z,19.20
2019-03-20T10:21:22.082Z,19.40
2019-03-20T10:23:49.522Z,19.10
2019-03-20T10:26:16.015Z,19.60
2019-03-20T10:28:42.578Z,18.50
2019-03-20T10:31:09.040Z,19.40
2019-03-20T10:33:35.494Z,18.30
2019-03-20T10:36:01.959Z,18.50
2019-03-20T10:38:28.508Z,18.60
2019-03-20T10:40:54.977Z,18.70
2019-03-20T10:43:21.450Z,18.70
2019-03-20T10:45:48.129Z,18.30
2019-03-20T10:48:14.589Z,18.60
2019-03-20T10:50:41.663Z,17.70
2019-03-20T10:53:08.513Z,18.50
2019-03-20T10:55:35.389Z,18.10
2019-03-20T10:58:01.968Z,18.60
2019-03-20T11:00:28.959Z,18.30
2019-03-20T11:02:55.830Z,18.20
2019-03-20T11:05:22.290Z,19.00
2019-03-20T11:07:49.895Z,17.60
2019-03-20T11:10:26.159Z,17.00
2019-03-20T11:12:54.964Z,16.10
2019-03-20T11:15:22.318Z,16.30
2019-03-20T11:17:49.027Z,16.40
2019-03-20T11:20:19.850Z,16.50
2019-03-20T11:22:47.151Z,17.50
2019-03-20T11:25:23.598Z,16.90
2019-03-20T11:27:50.474Z,17.20
2019-03-20T11:30:31.674Z,16.30
2019-03-20T11:32:59.317Z,16.30
2019-03-20T11:35:25.993Z,15.30
2019-03-20T11:37:52.908Z,17.10
2019-03-20T11:40:21.855Z,17.30
2019-03-20T11:42:49.317Z,18.00
2019-03-20T11:45:16.016Z,17.40
2019-03-20T11:47:42.594Z,18.10
2019-03-20T11:50:15.584Z,18.40
2019-03-20T11:52:43.131Z,18.30
2019-03-20T11:55:09.670Z,18.50
2019-03-20T11:57:37.387Z,17.90
2019-03-20T12:00:11.579Z,18.00
2019-03-20T12:02:39.060Z,17.10
2019-03-20T12:05:08.628Z,17.80
2019-03-20T12:07:35.250Z,18.00
2019-03-20T12:10:08.001Z,17.90
2019-03-20T12:12:34.611Z,17.80
2019-03-20T12:15:02.188Z,18.50
2019-03-20T12:17:30.297Z,18.70
2019-03-20T12:19:58.218Z,19.30
2019-03-20T12:22:25.154Z,18.40
2019-03-20T12:24:52.203Z,17.80
2019-03-20T12:27:18.785Z,18.30
2019-03-20T12:29:46.119Z,17.40
2019-03-20T12:32:12.690Z,17.90
2019-03-20T12:34:39.157Z,18.00
2019-03-20T12:37:05.978Z,18.00
2019-03-20T12:39:32.498Z,17.80
2019-03-20T12:41:58.943Z,17.80
2019-03-20T12:44:25.704Z,17.60
2019-03-20T12:46:53.042Z,17.50
2019-03-20T12:49:20.410Z,17.80
2019-03-20T12:51:47.551Z,17.20
2019-03-20T12:54:15.083Z,17.60
2019-03-20T12:56:41.625Z,18.40
2019-03-20T12:59:09.426Z,17.80
2019-03-20T13:01:36.574Z,17.90
2019-03-20T13:04:04.091Z,18.10
2019-03-20T13:06:31.649Z,17.80
2019-03-20T13:08:58.129Z,18.30
2019-03-20T13:11:25.943Z,18.00
2019-03-20T13:13:52.402Z,17.70
2019-03-20T13:16:18.844Z,17.60
2019-03-20T13:18:45.319Z,17.10
2019-03-20T13:21:11.763Z,17.20
2019-03-20T13:23:38.467Z,17.00
2019-03-20T13:26:06.802Z,17.30
2019-03-20T13:28:33.298Z,17.40
2019-03-20T13:31:06.436Z,17.70
2019-03-20T13:33:32.912Z,17.50
2019-03-20T13:36:00.099Z,17.80
2019-03-20T13:38:27.460Z,18.10
2019-03-20T13:40:54.020Z,16.90
2019-03-20T13:43:20.814Z,17.20
2019-03-20T13:45:48.786Z,17.00
2019-03-20T13:48:16.355Z,16.90
2019-03-20T13:50:44.030Z,17.20
2019-03-20T13:53:11.365Z,16.90
2019-03-20T13:55:38.601Z,17.10
2019-03-20T13:58:05.158Z,17.00
2019-03-20T14:00:32.514Z,17.20
2019-03-20T14:02:59.124Z,17.30
2019-03-20T14:05:26.065Z,17.40
2019-03-20T14:07:52.591Z,18.10
2019-03-20T14:10:29.797Z,17.50
2019-03-20T14:12:56.340Z,17.20
2019-03-20T14:15:24.044Z,17.50
2019-03-20T14:17:51.034Z,17.90
2019-03-20T14:20:23.745Z,18.20
2019-03-20T14:22:50.545Z,18.60
2019-03-20T14:25:17.919Z,18.50
2019-03-20T14:27:44.736Z,17.70
2019-03-20T14:30:16.495Z,17.70
2019-03-20T14:32:43.664Z,17.70
2019-03-20T14:35:10.259Z,17.70
2019-03-20T14:37:37.637Z,18.20
2019-03-20T14:40:08.780Z,17.90
2019-03-20T14:42:35.939Z,18.30
2019-03-20T14:45:04.091Z,17.80
2019-03-20T14:47:30.774Z,17.70
2019-03-20T14:49:57.986Z,17.30
2019-03-20T14:52:24.681Z,16.90
2019-03-20T14:54:52.179Z,16.40
2019-03-20T14:57:19.317Z,16.60
2019-03-20T14:59:46.312Z,16.10
2019-03-20T15:02:13.420Z,16.40
2019-03-20T15:04:40.755Z,16.60
2019-03-20T15:07:08.743Z,16.70
2019-03-20T15:09:35.988Z,17.20
2019-03-20T15:12:03.119Z,16.60
2019-03-20T15:14:30.291Z,16.60
2019-03-20T15:16:57.245Z,17.20
2019-03-20T15:19:24.572Z,17.60
2019-03-20T15:21:51.520Z,17.50
2019-03-20T15:24:18.601Z,17.50
2019-03-20T15:26:45.556Z,17.50
2019-03-20T15:29:12.408Z,17.80
2019-03-20T15:31:39.303Z,17.90
2019-03-20T15:34:06.026Z,17.40
2019-03-20T15:36:32.968Z,17.50
2019-03-20T15:38:59.928Z,18.00
2019-03-20T15:41:26.846Z,17.40
2019-03-20T15:44:02.084Z,18.10
2019-03-20T15:46:22.349Z,17.80
2019-03-20T15:48:49.506Z,18.30
2019-03-20T15:51:16.574Z,18.70
2019-03-20T15:53:43.459Z,18.40
2019-03-20T15:56:10.492Z,18.90
2019-03-20T15:58:37.184Z,19.10
2019-03-20T16:01:04.413Z,19.20
2019-03-20T16:03:37.944Z,19.70
2019-03-20T16:06:04.907Z,19.90
2019-03-20T16:08:32.235Z,20.20
2019-03-20T16:11:06.450Z,20.10
2019-03-20T16:13:28.208Z,20.30
2019-03-20T16:15:57.069Z,20.80
2019-03-20T16:18:24.156Z,21.00
2019-03-20T16:20:51.381Z,21.70
2019-03-20T16:23:18.539Z,21.50
2019-03-20T16:25:46.126Z,21.80
2019-03-20T16:28:13.736Z,21.90
2019-03-20T16:30:40.875Z,22.20
2019-03-20T16:33:08.223Z,22.40
2019-03-20T16:35:35.068Z,22.40
2019-03-20T16:38:02.303Z,22.40
2019-03-20T16:40:31.788Z,22.00
2019-03-20T16:42:58.546Z,22.20
2019-03-20T16:45:33.794Z,22.20
2019-03-20T16:48:01.131Z,22.20
2019-03-20T16:50:28.183Z,22.20
2019-03-20T16:52:55.130Z,22.40
2019-03-20T16:55:22.091Z,22.40
2019-03-20T16:57:49.072Z,22.20
2019-03-20T17:00:27.213Z,22.80
2019-03-20T17:02:54.367Z,22.10
2019-03-20T17:05:24.174Z,22.20
2019-03-20T17:07:51.380Z,22.30
2019-03-20T17:10:31.270Z,22.50
2019-03-20T17:12:59.143Z,22.40
2019-03-20T17:15:39.915Z,22.00
2019-03-20T17:18:07.052Z,22.10
2019-03-20T17:20:34.056Z,22.50
2019-03-20T17:23:01.568Z,22.00
2019-03-20T17:25:29.004Z,22.20
2019-03-20T17:27:55.929Z,22.30
2019-03-20T17:30:26.097Z,22.30
2019-03-20T17:32:53.319Z,22.30
2019-03-20T17:35:20.990Z,22.20
2019-03-20T17:37:49.060Z,22.50
2019-03-20T17:40:25.940Z,22.60
2019-03-20T17:42:52.789Z,22.70
2019-03-20T17:45:28.414Z,22.70
2019-03-20T17:47:55.352Z,22.90
2019-03-20T17:50:27.371Z,22.90
2019-03-20T17:52:54.380Z,23.00
2019-03-20T17:55:21.508Z,22.80
2019-03-20T17:57:57.054Z,22.70
2019-03-20T18:00:38.635Z,22.40
2019-03-20T18:03:06.609Z,22.20
2019-03-20T18:05:39.328Z,22.20
2019-03-20T18:08:14.889Z,22.10
2019-03-20T18:10:49.850Z,22.30
2019-03-20T18:13:17.623Z,22.30
2019-03-20T18:15:45.586Z,22.40
2019-03-20T18:18:12.671Z,22.50
2019-03-20T18:20:39.401Z,22.60
2019-03-20T18:23:07.252Z,22.70
2019-03-20T18:25:34.207Z,22.90
2019-03-20T18:28:01.432Z,23.10
2019-03-20T18:30:30.497Z,23.20
2019-03-20T18:32:58.013Z,40.00
2019-03-20T18:35:25.094Z,25.40
2019-03-20T18:37:52.178Z,24.40
2019-03-20T18:40:23.826Z,24.10
2019-03-20T18:42:51.078Z,24.00
2019-03-20T18:45:19.417Z,23.90
2019-03-20T18:47:47.118Z,24.50
2019-03-20T18:50:17.541Z,23.70
2019-03-20T18:52:44.897Z,23.60
2019-03-20T18:55:14.056Z,23.40
2019-03-20T18:57:41.285Z,23.30
2019-03-20T19:00:14.827Z,23.20
2019-03-20T19:02:41.770Z,23.30
2019-03-20T19:05:18.603Z,23.30
2019-03-20T19:07:47.021Z,23.90
2019-03-20T19:10:14.293Z,23.40
2019-03-20T19:12:41.306Z,23.40
2019-03-20T19:15:10.249Z,23.40
2019-03-20T19:17:37.491Z,23.50
2019-03-20T19:20:10.669Z,23.50
2019-03-20T19:22:37.766Z,23.60
2019-03-20T19:25:08.269Z,23.50
2019-03-20T19:27:35.473Z,23.60
2019-03-20T19:30:04.481Z,23.50
2019-03-20T19:32:32.220Z,23.60
2019-03-20T19:35:00.920Z,23.50
2019-03-20T19:37:28.108Z,23.70
2019-03-20T19:39:55.817Z,23.40
2019-03-20T19:42:24.164Z,23.40
2019-03-20T19:44:53.809Z,23.40
2019-03-20T19:47:22.831Z,23.40
2019-03-20T19:49:50.093Z,23.40
2019-03-20T19:52:17.612Z,24.10
2019-03-20T19:54:44.859Z,23.30
2019-03-20T19:57:11.990Z,23.30
2019-03-20T19:59:39.139Z,23.30
2019-03-20T20:02:06.501Z,23.30
2019-03-20T20:04:34.170Z,23.20
2019-03-20T20:07:01.195Z,23.30
2019-03-20T20:09:28.037Z,23.20
2019-03-20T20:11:55.673Z,23.20
2019-03-20T20:14:23.875Z,23.30
2019-03-20T20:16:51.246Z,23.40
2019-03-20T20:19:18.781Z,23.90
2019-03-20T20:21:46.464Z,23.40
2019-03-20T20:24:14.813Z,23.30
2019-03-20T20:26:41.864Z,23.20
2019-03-20T20:29:08.833Z,23.30
2019-03-20T20:31:36.224Z,23.20
2019-03-20T20:34:04.381Z,23.20
2019-03-20T20:36:32.187Z,23.20
2019-03-20T20:39:00.312Z,23.20
2019-03-20T20:41:29.111Z,23.30
2019-03-20T20:43:57.183Z,23.50
2019-03-20T20:46:25.020Z,23.60
2019-03-20T20:48:52.814Z,23.70
2019-03-20T20:51:20.511Z,23.70
2019-03-20T20:53:48.145Z,24.20
2019-03-20T20:56:15.115Z,23.80
2019-03-20T20:58:43.421Z,23.80
2019-03-20T21:01:11.166Z,23.70
2019-03-20T21:03:39.048Z,23.70
2019-03-20T21:06:06.286Z,23.70
2019-03-20T21:08:33.727Z,23.70
2019-03-20T21:11:00.936Z,23.80
2019-03-20T21:13:27.839Z,23.70
2019-03-20T21:15:55.567Z,23.80
2019-03-20T21:18:47.703Z,23.70
2019-03-20T21:21:16.895Z,23.60
2019-03-20T21:24:22.003Z,23.70
2019-03-20T21:27:04.746Z,23.60
2019-03-20T21:29:50.738Z,23.60
2019-03-20T21:32:27.700Z,23.60
2019-03-20T21:35:31.961Z,23.60
2019-03-20T21:38:07.329Z,23.60
2019-03-20T21:41:02.618Z,23.70
2019-03-20T21:43:48.075Z,23.70
2019-03-20T21:46:22.029Z,23.70
2019-03-20T21:48:48.705Z,23.70
2019-03-20T21:51:17.073Z,23.80
2019-03-20T21:54:14.558Z,23.90
2019-03-20T21:56:51.337Z,23.90
2019-03-20T21:59:44.911Z,23.90
2019-03-20T22:02:39.866Z,23.90
2019-03-20T22:05:10.215Z,24.10
2019-03-20T22:07:38.267Z,23.90
2019-03-20T22:10:27.049Z,24.10
2019-03-20T22:13:18.705Z,24.00
2019-03-20T22:15:53.120Z,24.20
2019-03-20T22:18:29.613Z,24.20
2019-03-20T22:21:15.222Z,24.20
2019-03-20T22:24:20.066Z,24.20
2019-03-20T22:26:59.600Z,24.20
2019-03-20T22:29:26.817Z,23.90
2019-03-20T22:32:18.171Z,23.90
2019-03-20T22:35:04.227Z,23.80
2019-03-20T22:37:31.573Z,23.80
2019-03-20T22:40:14.320Z,23.90
2019-03-20T22:42:57.000Z,23.90
2019-03-20T22:46:03.174Z,23.50
2019-03-20T22:48:39.743Z,23.80
2019-03-20T22:51:26.885Z,23.90
2019-03-20T22:54:14.480Z,23.90
2019-03-20T22:56:50.981Z,23.90
2019-03-20T22:59:17.589Z,23.80
2019-03-20T23:01:54.079Z,23.90
2019-03-20T23:04:27.847Z,24.00
2019-03-20T23:06:54.804Z,24.10
2019-03-20T23:09:21.556Z,24.00
2019-03-20T23:11:48.132Z,24.00
2019-03-20T23:14:14.690Z,24.10
2019-03-20T23:16:41.688Z,24.10
2019-03-20T23:19:08.252Z,24.10
2019-03-20T23:21:34.808Z,24.20
2019-03-20T23:24:01.254Z,24.20
2019-03-20T23:26:27.804Z,24.20
2019-03-20T23:28:54.762Z,24.20
2019-03-20T23:31:21.486Z,24.30
2019-03-20T23:33:48.049Z,24.40
2019-03-20T23:36:14.639Z,24.70
2019-03-20T23:38:41.355Z,24.60
2019-03-20T23:41:08.314Z,24.50
2019-03-20T23:43:35.155Z,24.40
2019-03-20T23:46:03.125Z,24.50
2019-03-20T23:48:43.000Z,24.40
2019-03-20T23:51:22.214Z,24.40
2019-03-20T23:53:50.561Z,24.40
2019-03-20T23:56:17.147Z,24.50
2019-03-20T23:58:43.706Z,24.40
